sensor_id;sensor_type;location;lat;lon;timestamp;pressure;altitude;pressure_sealevel;temperature;humidity
63006;BME280;53704;52.532;6.426;2023-03-01T00:01:10;103230.94;;;-2.71;100.00
63006;BME280;53704;52.532;6.426;2023-03-01T00:03:35;103218.59;;;-2.69;100.00
63006;BME280;53704;52.532;6.426;2023-03-01T00:06:02;103223.88;;;-2.70;100.00
63006;BME280;53704;52.532;6.426;2023-03-01T00:08:28;103223.16;;;-2.85;100.00
63006;BME280;53704;52.532;6.426;2023-03-01T00:11:14;103220.03;;;-3.16;100.00
63006;BME280;53704;52.532;6.426;2023-03-01T00:13:40;103215.47;;;-3.02;100.00
63006;BME280;53704;52.532;6.426;2023-03-01T00:16:09;103218.09;;;-2.99;100.00
63006;BME280;53704;52.532;6.426;2023-03-01T00:18:35;103219.88;;;-3.02;100.00
63006;BME280;53704;52.532;6.426;2023-03-01T00:21:01;103212.00;;;-3.07;100.00
63006;BME280;53704;52.532;6.426;2023-03-01T00:23:27;103213.72;;;-3.01;100.00
63006;BME280;53704;52.532;6.426;2023-03-01T00:25:52;103212.72;;;-2.93;100.00
63006;BME280;53704;52.532;6.426;2023-03-01T00:28:19;103209.16;;;-2.88;100.00
63006;BME280;53704;52.532;6.426;2023-03-01T00:30:44;103201.44;;;-3.05;100.00
63006;BME280;53704;52.532;6.426;2023-03-01T00:33:10;103203.59;;;-3.41;100.00
63006;BME280;53704;52.532;6.426;2023-03-01T00:35:36;103198.81;;;-3.07;100.00
63006;BME280;53704;52.532;6.426;2023-03-01T00:38:01;103201.72;;;-3.30;100.00
63006;BME280;53704;52.532;6.426;2023-03-01T00:40:28;103197.28;;;-3.27;100.00
63006;BME280;53704;52.532;6.426;2023-03-01T00:42:54;103200.03;;;-3.36;100.00
63006;BME280;53704;52.532;6.426;2023-03-01T00:45:19;103204.38;;;-3.30;100.00
63006;BME280;53704;52.532;6.426;2023-03-01T00:47:45;103203.22;;;-3.06;100.00
63006;BME280;53704;52.532;6.426;2023-03-01T00:50:11;103196.13;;;-3.02;100.00
63006;BME280;53704;52.532;6.426;2023-03-01T00:52:37;103201.63;;;-3.19;100.00
63006;BME280;53704;52.532;6.426;2023-03-01T00:55:03;103211.16;;;-3.09;100.00
63006;BME280;53704;52.532;6.426;2023-03-01T00:57:29;103210.38;;;-3.19;100.00
63006;BME280;53704;52.532;6.426;2023-03-01T00:59:54;103201.53;;;-3.15;100.00
63006;BME280;53704;52.532;6.426;2023-03-01T01:02:20;103199.97;;;-3.31;100.00
63006;BME280;53704;52.532;6.426;2023-03-01T01:04:46;103201.44;;;-3.05;100.00
63006;BME280;53704;52.532;6.426;2023-03-01T01:07:12;103193.00;;;-3.37;100.00
63006;BME280;53704;52.532;6.426;2023-03-01T01:09:38;103201.59;;;-3.16;100.00
63006;BME280;53704;52.532;6.426;2023-03-01T01:12:03;103194.56;;;-3.17;100.00
63006;BME280;53704;52.532;6.426;2023-03-01T01:14:29;103200.00;;;-3.34;100.00
63006;BME280;53704;52.532;6.426;2023-03-01T01:16:55;103190.06;;;-4.02;100.00
63006;BME280;53704;52.532;6.426;2023-03-01T01:19:21;103195.41;;;-4.14;100.00
63006;BME280;53704;52.532;6.426;2023-03-01T01:21:47;103190.19;;;-4.21;100.00
63006;BME280;53704;52.532;6.426;2023-03-01T01:24:13;103185.81;;;-4.17;100.00
63006;BME280;53704;52.532;6.426;2023-03-01T01:26:40;103194.59;;;-4.21;100.00
63006;BME280;53704;52.532;6.426;2023-03-01T01:29:06;103189.19;;;-4.01;100.00
63006;BME280;53704;52.532;6.426;2023-03-01T01:31:32;103188.91;;;-3.69;100.00
63006;BME280;53704;52.532;6.426;2023-03-01T01:34:00;103187.38;;;-3.93;100.00
63006;BME280;53704;52.532;6.426;2023-03-01T01:36:26;103178.88;;;-4.32;100.00
63006;BME280;53704;52.532;6.426;2023-03-01T01:38:52;103177.09;;;-4.25;100.00
63006;BME280;53704;52.532;6.426;2023-03-01T01:41:19;103173.16;;;-3.75;100.00
63006;BME280;53704;52.532;6.426;2023-03-01T01:43:49;103175.09;;;-3.95;100.00
63006;BME280;53704;52.532;6.426;2023-03-01T01:46:26;103173.50;;;-4.15;100.00
63006;BME280;53704;52.532;6.426;2023-03-01T01:49:01;103176.16;;;-4.18;100.00
63006;BME280;53704;52.532;6.426;2023-03-01T01:51:32;103171.44;;;-3.76;100.00
63006;BME280;53704;52.532;6.426;2023-03-01T01:54:08;103172.34;;;-3.80;100.00
63006;BME280;53704;52.532;6.426;2023-03-01T01:56:36;103160.28;;;-4.04;100.00
63006;BME280;53704;52.532;6.426;2023-03-01T01:59:03;103160.41;;;-4.23;100.00
63006;BME280;53704;52.532;6.426;2023-03-01T02:01:29;103153.16;;;-3.91;100.00
63006;BME280;53704;52.532;6.426;2023-03-01T02:03:54;103157.66;;;-4.07;100.00
63006;BME280;53704;52.532;6.426;2023-03-01T02:06:29;103152.31;;;-3.96;100.00
63006;BME280;53704;52.532;6.426;2023-03-01T02:09:00;103160.09;;;-3.79;100.00
63006;BME280;53704;52.532;6.426;2023-03-01T02:11:28;103155.13;;;-4.21;100.00
63006;BME280;53704;52.532;6.426;2023-03-01T02:13:54;103158.75;;;-4.36;100.00
63006;BME280;53704;52.532;6.426;2023-03-01T02:16:20;103160.50;;;-4.41;100.00
63006;BME280;53704;52.532;6.426;2023-03-01T02:18:46;103157.03;;;-4.43;100.00
63006;BME280;53704;52.532;6.426;2023-03-01T02:21:49;103157.72;;;-4.15;100.00
63006;BME280;53704;52.532;6.426;2023-03-01T02:24:24;103150.56;;;-3.99;100.00
63006;BME280;53704;52.532;6.426;2023-03-01T02:26:55;103147.44;;;-4.49;100.00
63006;BME280;53704;52.532;6.426;2023-03-01T02:29:22;103139.66;;;-4.67;100.00
63006;BME280;53704;52.532;6.426;2023-03-01T02:31:49;103138.53;;;-4.29;100.00
63006;BME280;53704;52.532;6.426;2023-03-01T02:34:24;103135.91;;;-4.31;100.00
63006;BME280;53704;52.532;6.426;2023-03-01T02:37:01;103138.53;;;-4.29;100.00
63006;BME280;53704;52.532;6.426;2023-03-01T02:39:46;103138.66;;;-4.48;100.00
63006;BME280;53704;52.532;6.426;2023-03-01T02:42:16;103133.16;;;-4.14;100.00
63006;BME280;53704;52.532;6.426;2023-03-01T02:44:45;103127.88;;;-4.08;100.00
63006;BME280;53704;52.532;6.426;2023-03-01T02:47:10;103129.78;;;-4.30;100.00
63006;BME280;53704;52.532;6.426;2023-03-01T02:49:36;103122.84;;;-4.40;100.00
63006;BME280;53704;52.532;6.426;2023-03-01T02:57:19;103126.22;;;-4.26;100.00
63006;BME280;53704;52.532;6.426;2023-03-01T02:59:47;103120.03;;;-4.15;100.00
63006;BME280;53704;52.532;6.426;2023-03-01T03:02:26;103120.16;;;-4.36;100.00
63006;BME280;53704;52.532;6.426;2023-03-01T03:05:22;103106.13;;;-4.30;100.00
63006;BME280;53704;52.532;6.426;2023-03-01T03:07:49;103112.06;;;-4.06;100.00
63006;BME280;53704;52.532;6.426;2023-03-01T03:10:25;103108.03;;;-4.53;100.00
63006;BME280;53704;52.532;6.426;2023-03-01T03:12:52;103099.84;;;-4.16;100.00
63006;BME280;53704;52.532;6.426;2023-03-01T03:15:19;103097.31;;;-4.29;100.00
63006;BME280;53704;52.532;6.426;2023-03-01T03:17:45;103098.38;;;-4.50;100.00
63006;BME280;53704;52.532;6.426;2023-03-01T03:20:13;103101.91;;;-4.60;100.00
63006;BME280;53704;52.532;6.426;2023-03-01T03:22:44;103099.28;;;-4.60;100.00
63006;BME280;53704;52.532;6.426;2023-03-01T03:25:10;103080.81;;;-4.49;100.00
63006;BME280;53704;52.532;6.426;2023-03-01T03:27:40;103095.66;;;-4.38;100.00
63006;BME280;53704;52.532;6.426;2023-03-01T03:30:07;103090.63;;;-4.75;100.00
63006;BME280;53704;52.532;6.426;2023-03-01T03:32:41;103093.16;;;-4.56;100.00
63006;BME280;53704;52.532;6.426;2023-03-01T03:35:08;103087.97;;;-4.72;100.00
63006;BME280;53704;52.532;6.426;2023-03-01T03:37:40;103095.03;;;-4.77;100.00
63006;BME280;53704;52.532;6.426;2023-03-01T03:40:25;103094.94;;;-4.63;100.00
63006;BME280;53704;52.532;6.426;2023-03-01T03:42:51;103103.53;;;-4.38;100.00
63006;BME280;53704;52.532;6.426;2023-03-01T03:45:17;103108.13;;;-4.69;100.00
63006;BME280;53704;52.532;6.426;2023-03-01T03:47:43;103106.38;;;-4.73;100.00
63006;BME280;53704;52.532;6.426;2023-03-01T03:50:13;103102.16;;;-4.96;100.00
63006;BME280;53704;52.532;6.426;2023-03-01T03:52:39;103105.63;;;-4.92;100.00
63006;BME280;53704;52.532;6.426;2023-03-01T03:55:06;103099.38;;;-4.68;100.00
63006;BME280;53704;52.532;6.426;2023-03-01T03:57:38;103091.47;;;-4.66;100.00
63006;BME280;53704;52.532;6.426;2023-03-01T04:00:06;103104.66;;;-4.71;100.00
63006;BME280;53704;52.532;6.426;2023-03-01T04:02:39;103101.19;;;-4.84;100.00
63006;BME280;53704;52.532;6.426;2023-03-01T04:05:05;103113.63;;;-5.15;100.00
63006;BME280;53704;52.532;6.426;2023-03-01T04:07:30;103104.94;;;-5.28;100.00
63006;BME280;53704;52.532;6.426;2023-03-01T04:09:56;103098.78;;;-5.30;100.00
63006;BME280;53704;52.532;6.426;2023-03-01T04:12:21;103108.41;;;-5.23;100.00
63006;BME280;53704;52.532;6.426;2023-03-01T04:14:48;103096.09;;;-5.12;100.00
63006;BME280;53704;52.532;6.426;2023-03-01T04:17:14;103092.59;;;-5.07;100.00
63006;BME280;53704;52.532;6.426;2023-03-01T04:19:39;103096.97;;;-5.16;100.00
63006;BME280;53704;52.532;6.426;2023-03-01T04:22:05;103089.97;;;-5.12;100.00
63006;BME280;53704;52.532;6.426;2023-03-01T04:24:37;103097.75;;;-4.95;100.00
63006;BME280;53704;52.532;6.426;2023-03-01T04:27:03;103088.03;;;-4.81;100.00
63006;BME280;53704;52.532;6.426;2023-03-01T04:29:29;103082.88;;;-4.93;100.00
63006;BME280;53704;52.532;6.426;2023-03-01T04:31:54;103081.16;;;-5.05;100.00
63006;BME280;53704;52.532;6.426;2023-03-01T04:34:20;103092.59;;;-5.07;100.00
63006;BME280;53704;52.532;6.426;2023-03-01T04:36:45;103083.81;;;-5.13;100.00
63006;BME280;53704;52.532;6.426;2023-03-01T04:39:11;103087.38;;;-5.17;100.00
63006;BME280;53704;52.532;6.426;2023-03-01T04:41:39;103082.16;;;-5.32;100.00
63006;BME280;53704;52.532;6.426;2023-03-01T04:44:06;103079.53;;;-5.26;100.00
63006;BME280;53704;52.532;6.426;2023-03-01T04:46:31;103076.03;;;-5.28;100.00
63006;BME280;53704;52.532;6.426;2023-03-01T04:48:57;103069.03;;;-5.24;100.00
63006;BME280;53704;52.532;6.426;2023-03-01T04:51:22;103060.19;;;-5.13;100.00
63006;BME280;53704;52.532;6.426;2023-03-01T04:53:48;103062.91;;;-5.27;100.00
63006;BME280;53704;52.532;6.426;2023-03-01T04:56:14;103057.56;;;-5.13;100.00
63006;BME280;53704;52.532;6.426;2023-03-01T04:58:39;103063.59;;;-4.94;100.00
63006;BME280;53704;52.532;6.426;2023-03-01T05:01:19;103055.84;;;-5.15;100.00
63006;BME280;53704;52.532;6.426;2023-03-01T05:03:47;103047.19;;;-5.37;100.00
63006;BME280;53704;52.532;6.426;2023-03-01T05:06:14;103046.31;;;-5.39;100.00
63006;BME280;53704;52.532;6.426;2023-03-01T05:08:40;103044.56;;;-5.34;100.00
63006;BME280;53704;52.532;6.426;2023-03-01T05:11:06;103048.78;;;-5.05;100.00
63006;BME280;53704;52.532;6.426;2023-03-01T05:13:35;103049.72;;;-5.17;100.00
63006;BME280;53704;52.532;6.426;2023-03-01T05:16:02;103041.00;;;-5.24;100.00
63006;BME280;53704;52.532;6.426;2023-03-01T05:18:30;103041.03;;;-5.32;100.00
63006;BME280;53704;52.532;6.426;2023-03-01T05:21:11;103029.44;;;-4.94;100.00
63006;BME280;53704;52.532;6.426;2023-03-01T05:23:37;103036.56;;;-5.13;100.00
63006;BME280;53704;52.532;6.426;2023-03-01T05:26:04;103035.75;;;-5.25;100.00
63006;BME280;53704;52.532;6.426;2023-03-01T05:28:31;103033.09;;;-5.19;100.00
63006;BME280;53704;52.532;6.426;2023-03-01T05:30:57;103026.94;;;-5.09;100.00
63006;BME280;53704;52.532;6.426;2023-03-01T05:33:23;103032.19;;;-5.14;100.00
63006;BME280;53704;52.532;6.426;2023-03-01T05:35:50;103029.59;;;-5.20;100.00
63006;BME280;53704;52.532;6.426;2023-03-01T05:38:17;103021.75;;;-5.23;100.00
63006;BME280;53704;52.532;6.426;2023-03-01T05:40:44;103023.53;;;-5.30;100.00
63006;BME280;53704;52.532;6.426;2023-03-01T05:43:10;103021.81;;;-5.41;100.00
63006;BME280;53704;52.532;6.426;2023-03-01T05:45:37;103011.31;;;-5.41;100.00
63006;BME280;53704;52.532;6.426;2023-03-01T05:48:04;103013.94;;;-5.41;100.00
63006;BME280;53704;52.532;6.426;2023-03-01T05:50:34;103015.75;;;-5.54;100.00
63006;BME280;53704;52.532;6.426;2023-03-01T05:55:26;103016.47;;;-5.21;100.00
63006;BME280;53704;52.532;6.426;2023-03-01T05:57:52;103021.81;;;-5.37;100.00
63006;BME280;53704;52.532;6.426;2023-03-01T06:00:19;103026.31;;;-5.68;100.00
63006;BME280;53704;52.532;6.426;2023-03-01T06:02:47;103029.78;;;-5.63;100.00
63006;BME280;53704;52.532;6.426;2023-03-01T06:05:12;103024.53;;;-5.65;100.00
63006;BME280;53704;52.532;6.426;2023-03-01T06:07:39;103024.47;;;-5.48;100.00
63006;BME280;53704;52.532;6.426;2023-03-01T06:10:05;103020.97;;;-5.45;100.00
63006;BME280;53704;52.532;6.426;2023-03-01T06:12:32;103021.06;;;-5.74;100.00
63006;BME280;53704;52.532;6.426;2023-03-01T06:14:58;103024.63;;;-5.85;100.00
63006;BME280;53704;52.532;6.426;2023-03-01T06:17:24;103029.84;;;-5.75;100.00
63006;BME280;53704;52.532;6.426;2023-03-01T06:19:50;103023.75;;;-5.93;100.00
63006;BME280;53704;52.532;6.426;2023-03-01T06:22:15;103026.31;;;-5.76;100.00
63006;BME280;53704;52.532;6.426;2023-03-01T06:24:40;103021.81;;;-5.41;100.00
63006;BME280;53704;52.532;6.426;2023-03-01T06:27:06;103017.56;;;-5.66;100.00
63006;BME280;53704;52.532;6.426;2023-03-01T06:29:31;103029.00;;;-5.90;100.00
63006;BME280;53704;52.532;6.426;2023-03-01T06:31:57;103034.16;;;-5.62;100.00
63006;BME280;53704;52.532;6.426;2023-03-01T06:34:22;103032.44;;;-5.71;100.00
63006;BME280;53704;52.532;6.426;2023-03-01T06:36:48;103030.75;;;-5.92;100.00
63006;BME280;53704;52.532;6.426;2023-03-01T06:39:13;103034.31;;;-5.99;100.00
63006;BME280;53704;52.532;6.426;2023-03-01T06:41:39;103041.16;;;-5.58;100.00
63006;BME280;53704;52.532;6.426;2023-03-01T06:44:04;103045.59;;;-5.77;100.00
63006;BME280;53704;52.532;6.426;2023-03-01T06:46:30;103043.81;;;-5.79;100.00
63006;BME280;53704;52.532;6.426;2023-03-01T06:48:55;103048.16;;;-5.63;100.00
63006;BME280;53704;52.532;6.426;2023-03-01T06:51:21;103041.03;;;-5.36;100.00
63006;BME280;53704;52.532;6.426;2023-03-01T06:53:46;103047.22;;;-5.42;100.00
63006;BME280;53704;52.532;6.426;2023-03-01T06:56:12;103048.13;;;-5.55;100.00
63006;BME280;53704;52.532;6.426;2023-03-01T06:58:37;103042.84;;;-5.51;100.00
63006;BME280;53704;52.532;6.426;2023-03-01T07:01:07;103034.91;;;-5.34;100.00
63006;BME280;53704;52.532;6.426;2023-03-01T07:03:32;103039.31;;;-5.36;100.00
63006;BME280;53704;52.532;6.426;2023-03-01T07:05:58;103049.03;;;-5.55;100.00
63006;BME280;53704;52.532;6.426;2023-03-01T07:08:23;103053.44;;;-5.75;100.00
63006;BME280;53704;52.532;6.426;2023-03-01T07:10:57;103048.19;;;-5.72;100.00
63006;BME280;53704;52.532;6.426;2023-03-01T07:13:23;103054.28;;;-5.66;100.00
63006;BME280;53704;52.532;6.426;2023-03-01T07:15:48;103055.91;;;-5.26;100.00
63006;BME280;53704;52.532;6.426;2023-03-01T07:18:13;103057.78;;;-5.64;100.00
63006;BME280;53704;52.532;6.426;2023-03-01T07:20:39;103052.56;;;-5.73;100.00
63006;BME280;53704;52.532;6.426;2023-03-01T07:23:06;103054.19;;;-5.44;100.00
63006;BME280;53704;52.532;6.426;2023-03-01T07:25:31;103050.66;;;-5.29;100.00
63006;BME280;53704;52.532;6.426;2023-03-01T07:27:57;103058.38;;;-5.04;100.00
63006;BME280;53704;52.532;6.426;2023-03-01T07:30:23;103064.59;;;-5.16;100.00
63006;BME280;53704;52.532;6.426;2023-03-01T07:32:51;103062.81;;;-5.11;100.00
63006;BME280;53704;52.532;6.426;2023-03-01T07:35:17;103061.88;;;-4.98;100.00
63006;BME280;53704;52.532;6.426;2023-03-01T07:37:42;103060.09;;;-4.91;100.00
63006;BME280;53704;52.532;6.426;2023-03-01T07:40:08;103056.59;;;-4.93;100.00
63006;BME280;53704;52.532;6.426;2023-03-01T07:42:34;103062.69;;;-4.89;100.00
63006;BME280;53704;52.532;6.426;2023-03-01T07:45:00;103050.47;;;-4.98;100.00
63006;BME280;53704;52.532;6.426;2023-03-01T07:47:25;103055.66;;;-4.86;100.00
63006;BME280;53704;52.532;6.426;2023-03-01T07:49:50;103052.09;;;-4.73;100.00
63006;BME280;53704;52.532;6.426;2023-03-01T07:52:16;103056.47;;;-4.75;100.00
63006;BME280;53704;52.532;6.426;2023-03-01T07:54:43;103054.72;;;-4.74;100.00
63006;BME280;53704;52.532;6.426;2023-03-01T07:57:10;103052.88;;;-4.58;100.00
63006;BME280;53704;52.532;6.426;2023-03-01T07:59:35;103050.19;;;-4.50;100.00
63006;BME280;53704;52.532;6.426;2023-03-01T08:02:00;103048.41;;;-4.51;100.00
63006;BME280;53704;52.532;6.426;2023-03-01T08:04:26;103051.03;;;-4.47;100.00
63006;BME280;53704;52.532;6.426;2023-03-01T08:06:54;103043.91;;;-4.37;100.00
63006;BME280;53704;52.532;6.426;2023-03-01T08:09:19;103043.00;;;-4.31;100.00
63006;BME280;53704;52.532;6.426;2023-03-01T08:11:45;103040.34;;;-4.27;100.00
63006;BME280;53704;52.532;6.426;2023-03-01T08:14:10;103046.44;;;-4.22;100.00
63006;BME280;53704;52.532;6.426;2023-03-01T08:16:36;103036.72;;;-4.15;100.00
63006;BME280;53704;52.532;6.426;2023-03-01T08:19:10;103037.50;;;-4.07;100.00
63006;BME280;53704;52.532;6.426;2023-03-01T08:21:37;103039.09;;;-3.89;100.00
63006;BME280;53704;52.532;6.426;2023-03-01T08:24:04;103033.78;;;-3.84;100.00
63006;BME280;53704;52.532;6.426;2023-03-01T08:26:31;103030.06;;;-3.68;100.00
63006;BME280;53704;52.532;6.426;2023-03-01T08:28:56;103025.59;;;-3.59;100.00
63006;BME280;53704;52.532;6.426;2023-03-01T08:31:28;103028.19;;;-3.56;100.00
63006;BME280;53704;52.532;6.426;2023-03-01T08:33:57;103023.63;;;-3.42;100.00
63006;BME280;53704;52.532;6.426;2023-03-01T08:36:24;103030.53;;;-3.33;100.00
63006;BME280;53704;52.532;6.426;2023-03-01T08:38:50;103026.91;;;-3.26;100.00
63006;BME280;53704;52.532;6.426;2023-03-01T08:41:16;103021.31;;;-3.00;100.00
63006;BME280;53704;52.532;6.426;2023-03-01T08:43:41;103016.94;;;-3.02;100.00
63006;BME280;53704;52.532;6.426;2023-03-01T08:46:07;103019.38;;;-2.88;100.00
63006;BME280;53704;52.532;6.426;2023-03-01T08:48:33;103017.66;;;-2.93;100.00
63006;BME280;53704;52.532;6.426;2023-03-01T08:51:19;103019.97;;;-2.71;100.00
63006;BME280;53704;52.532;6.426;2023-03-01T08:53:45;103011.53;;;-2.37;100.00
63006;BME280;53704;52.532;6.426;2023-03-01T08:56:11;103007.78;;;-2.24;100.00
63006;BME280;53704;52.532;6.426;2023-03-01T08:58:37;103008.59;;;-2.22;100.00
63006;BME280;53704;52.532;6.426;2023-03-01T09:01:08;103002.38;;;-2.17;100.00
63006;BME280;53704;52.532;6.426;2023-03-01T09:03:34;103009.84;;;-1.93;100.00
63006;BME280;53704;52.532;6.426;2023-03-01T09:06:00;103016.50;;;-1.73;100.00
63006;BME280;53704;52.532;6.426;2023-03-01T09:08:26;103015.69;;;-1.75;100.00
63006;BME280;53704;52.532;6.426;2023-03-01T09:10:52;103009.16;;;-1.57;100.00
63006;BME280;53704;52.532;6.426;2023-03-01T09:13:17;103007.34;;;-1.57;100.00
63006;BME280;53704;52.532;6.426;2023-03-01T09:15:42;103007.66;;;-1.29;100.00
63006;BME280;53704;52.532;6.426;2023-03-01T09:18:08;103010.09;;;-1.19;100.00
63006;BME280;53704;52.532;6.426;2023-03-01T09:20:33;103008.19;;;-1.13;100.00
63006;BME280;53704;52.532;6.426;2023-03-01T09:22:59;103018.88;;;-0.80;100.00
63006;BME280;53704;52.532;6.426;2023-03-01T09:25:24;103010.53;;;-0.61;100.00
63006;BME280;53704;52.532;6.426;2023-03-01T09:27:54;103010.34;;;-0.53;100.00
63006;BME280;53704;52.532;6.426;2023-03-01T09:30:20;103003.84;;;-0.42;100.00
63006;BME280;53704;52.532;6.426;2023-03-01T09:32:47;103000.81;;;-0.26;100.00
63006;BME280;53704;52.532;6.426;2023-03-01T09:35:12;103006.28;;;0.01;100.00
63006;BME280;53704;52.532;6.426;2023-03-01T09:37:38;103000.66;;;0.13;100.00
63006;BME280;53704;52.532;6.426;2023-03-01T09:40:20;102996.13;;;0.16;100.00
63006;BME280;53704;52.532;6.426;2023-03-01T09:42:53;102990.72;;;0.21;100.00
63006;BME280;53704;52.532;6.426;2023-03-01T09:45:26;102986.16;;;0.56;100.00
63006;BME280;53704;52.532;6.426;2023-03-01T09:47:52;102984.69;;;0.76;100.00
63006;BME280;53704;52.532;6.426;2023-03-01T09:50:20;102974.78;;;0.82;100.00
63006;BME280;53704;52.532;6.426;2023-03-01T09:53:09;102971.47;;;1.02;100.00
63006;BME280;53704;52.532;6.426;2023-03-01T10:01:32;102954.34;;;1.39;100.00
63006;BME280;53704;52.532;6.426;2023-03-01T10:04:12;102957.22;;;1.33;100.00
63006;BME280;53704;52.532;6.426;2023-03-01T10:09:21;102956.78;;;1.71;100.00
63006;BME280;53704;52.532;6.426;2023-03-01T10:11:53;102952.06;;;1.80;100.00
63006;BME280;53704;52.532;6.426;2023-03-01T10:14:44;102953.75;;;1.81;100.00
63006;BME280;53704;52.532;6.426;2023-03-01T10:17:30;102957.94;;;1.89;100.00
63006;BME280;53704;52.532;6.426;2023-03-01T10:20:15;102956.13;;;2.14;100.00
63006;BME280;53704;52.532;6.426;2023-03-01T10:22:41;102946.91;;;2.25;100.00
63006;BME280;53704;52.532;6.426;2023-03-01T10:25:13;102955.69;;;2.27;100.00
63006;BME280;53704;52.532;6.426;2023-03-01T10:27:49;102946.59;;;2.32;100.00
63006;BME280;53704;52.532;6.426;2023-03-01T10:30:19;102944.56;;;2.63;100.00
63006;BME280;53704;52.532;6.426;2023-03-01T10:32:46;102945.00;;;2.74;100.00
63006;BME280;53704;52.532;6.426;2023-03-01T10:35:26;102951.84;;;2.80;100.00
63006;BME280;53704;52.532;6.426;2023-03-01T10:38:06;102947.56;;;2.99;99.13
63006;BME280;53704;52.532;6.426;2023-03-01T10:40:34;102956.09;;;2.85;98.97
63006;BME280;53704;52.532;6.426;2023-03-01T10:43:04;102955.16;;;3.08;100.00
63006;BME280;53704;52.532;6.426;2023-03-01T10:45:35;102943.56;;;3.10;97.72
63006;BME280;53704;52.532;6.426;2023-03-01T10:48:22;102949.00;;;3.29;96.77
63006;BME280;53704;52.532;6.426;2023-03-01T10:56:06;102944.38;;;3.75;92.67
63006;BME280;53704;52.532;6.426;2023-03-01T10:58:34;102946.28;;;3.71;91.26
63006;BME280;53704;52.532;6.426;2023-03-01T11:01:27;102941.28;;;3.84;89.32
63006;BME280;53704;52.532;6.426;2023-03-01T11:06:32;102924.75;;;3.96;87.24
63006;BME280;53704;52.532;6.426;2023-03-01T11:11:41;102916.78;;;4.15;85.39
63006;BME280;53704;52.532;6.426;2023-03-01T11:14:14;102915.84;;;4.16;85.28
63006;BME280;53704;52.532;6.426;2023-03-01T11:16:43;102910.03;;;4.27;86.92
63006;BME280;53704;52.532;6.426;2023-03-01T11:21:37;102905.47;;;4.29;83.93
63006;BME280;53704;52.532;6.426;2023-03-01T11:24:08;102907.34;;;4.65;86.69
63006;BME280;53704;52.532;6.426;2023-03-01T11:26:38;102913.53;;;4.66;83.15
63006;BME280;53704;52.532;6.426;2023-03-01T11:29:17;102910.72;;;4.69;82.91
63006;BME280;53704;52.532;6.426;2023-03-01T11:31:48;102901.91;;;5.03;84.02
63006;BME280;53704;52.532;6.426;2023-03-01T11:34:19;102907.41;;;5.00;82.05
63006;BME280;53704;52.532;6.426;2023-03-01T11:36:53;102899.66;;;5.13;82.78
63006;BME280;53704;52.532;6.426;2023-03-01T11:42:13;102901.84;;;5.22;81.74
63006;BME280;53704;52.532;6.426;2023-03-01T11:44:42;102897.03;;;4.94;82.06
63006;BME280;53704;52.532;6.426;2023-03-01T11:50:17;102900.28;;;5.36;81.14
63006;BME280;53704;52.532;6.426;2023-03-01T12:01:08;102893.28;;;5.51;79.30
63006;BME280;53704;52.532;6.426;2023-03-01T12:07:32;102883.28;;;5.72;78.52
63006;BME280;53704;52.532;6.426;2023-03-01T12:25:59;102857.19;;;5.93;77.15
63006;BME280;53704;52.532;6.426;2023-03-01T12:45:50;102829.31;;;6.30;71.64
63006;BME280;53704;52.532;6.426;2023-03-01T12:48:42;102833.81;;;6.76;73.59
63006;BME280;53704;52.532;6.426;2023-03-01T12:51:08;102834.03;;;6.41;72.29
63006;BME280;53704;52.532;6.426;2023-03-01T12:53:56;102828.66;;;6.73;73.03
63006;BME280;53704;52.532;6.426;2023-03-01T12:56:29;102819.72;;;6.88;71.94
63006;BME280;53704;52.532;6.426;2023-03-01T12:59:15;102803.72;;;7.17;71.59
63006;BME280;53704;52.532;6.426;2023-03-01T13:04:17;102811.00;;;6.85;71.40
63006;BME280;53704;52.532;6.426;2023-03-01T13:09:47;102793.00;;;7.17;69.59
63006;BME280;53704;52.532;6.426;2023-03-01T13:17:58;102782.66;;;7.97;69.78
63006;BME280;53704;52.532;6.426;2023-03-01T13:26:06;102783.72;;;7.81;69.83
63006;BME280;53704;52.532;6.426;2023-03-01T13:46:48;102762.94;;;7.84;64.00
63006;BME280;53704;52.532;6.426;2023-03-01T13:49:18;102756.84;;;7.53;64.29
63006;BME280;53704;52.532;6.426;2023-03-01T13:51:47;102757.53;;;7.28;64.45
63006;BME280;53704;52.532;6.426;2023-03-01T13:54:14;102750.84;;;7.50;67.21
63006;BME280;53704;52.532;6.426;2023-03-01T13:56:40;102750.06;;;7.33;64.58
63006;BME280;53704;52.532;6.426;2023-03-01T13:59:16;102742.38;;;7.41;66.04
63006;BME280;53704;52.532;6.426;2023-03-01T14:01:42;102738.31;;;7.92;65.84
63006;BME280;53704;52.532;6.426;2023-03-01T14:04:29;102740.56;;;7.71;63.23
63006;BME280;53704;52.532;6.426;2023-03-01T14:07:16;102730.72;;;7.42;62.11
63006;BME280;53704;52.532;6.426;2023-03-01T14:09:44;102727.72;;;7.76;61.90
63006;BME280;53704;52.532;6.426;2023-03-01T14:20:37;102717.06;;;8.16;61.83
63006;BME280;53704;52.532;6.426;2023-03-01T14:23:08;102711.34;;;8.08;60.90
63006;BME280;53704;52.532;6.426;2023-03-01T14:25:36;102702.44;;;7.80;61.13
63006;BME280;53704;52.532;6.426;2023-03-01T14:28:18;102709.31;;;7.84;59.50
63006;BME280;53704;52.532;6.426;2023-03-01T14:30:49;102704.88;;;7.97;59.83
63006;BME280;53704;52.532;6.426;2023-03-01T14:33:28;102701.88;;;7.60;58.34
63006;BME280;53704;52.532;6.426;2023-03-01T14:41:13;102681.19;;;7.77;62.03
63006;BME280;53704;52.532;6.426;2023-03-01T14:43:46;102690.44;;;7.44;60.33
63006;BME280;53704;52.532;6.426;2023-03-01T14:46:25;102683.56;;;7.11;60.34
63006;BME280;53704;52.532;6.426;2023-03-01T14:48:54;102683.94;;;7.05;60.81
63006;BME280;53704;52.532;6.426;2023-03-01T14:51:21;102680.50;;;7.03;63.63
63006;BME280;53704;52.532;6.426;2023-03-01T14:53:47;102676.88;;;7.33;63.75
63006;BME280;53704;52.532;6.426;2023-03-01T14:56:15;102677.41;;;7.52;64.39
63006;BME280;53704;52.532;6.426;2023-03-01T14:58:45;102668.06;;;7.02;61.88
63006;BME280;53704;52.532;6.426;2023-03-01T15:01:16;102667.47;;;6.68;62.55
63006;BME280;53704;52.532;6.426;2023-03-01T15:03:45;102661.09;;;6.85;63.34